createdAt,value
2019-04-06T00:03:44.152Z,18.30
2019-04-06T00:06:14.721Z,18.40
2019-04-06T00:08:45.201Z,20.10
2019-04-06T00:11:15.780Z,19.33
2019-04-06T00:13:46.258Z,20.30
2019-04-06T00:16:16.754Z,19.37
2019-04-06T00:18:47.816Z,18.93
2019-04-06T00:21:18.366Z,19.10
2019-04-06T00:23:48.986Z,18.20
2019-04-06T00:26:19.705Z,19.70
2019-04-06T00:28:50.328Z,18.70
2019-04-06T00:31:32.563Z,18.80
2019-04-06T00:34:03.334Z,16.87
2019-04-06T00:36:33.866Z,20.67
2019-04-06T00:39:06.013Z,17.10
2019-04-06T00:41:37.154Z,18.73
2019-04-06T00:44:07.708Z,18.10
2019-04-06T00:46:38.740Z,17.10
2019-04-06T00:49:09.326Z,17.23
2019-04-06T00:51:39.868Z,17.37
2019-04-06T00:54:10.397Z,18.30
2019-04-06T00:56:40.982Z,17.83
2019-04-06T00:59:11.457Z,17.40
2019-04-06T01:01:41.936Z,17.97
2019-04-06T01:04:12.406Z,17.83
2019-04-06T01:06:42.909Z,18.03
2019-04-06T01:09:13.468Z,18.33
2019-04-06T01:11:43.939Z,17.23
2019-04-06T01:14:14.409Z,18.27
2019-04-06T01:16:44.907Z,19.43
2019-04-06T01:19:15.388Z,19.43
2019-04-06T01:21:45.902Z,17.47
2019-04-06T01:24:16.444Z,18.50
2019-04-06T01:26:46.976Z,17.97
2019-04-06T01:29:17.465Z,17.97
2019-04-06T01:31:47.958Z,19.70
2019-04-06T01:34:18.437Z,18.37
2019-04-06T01:36:48.931Z,18.67
2019-04-06T01:39:19.436Z,19.00
2019-04-06T01:41:49.902Z,18.20
2019-04-06T01:44:20.403Z,18.90
2019-04-06T01:46:50.871Z,21.20
2019-04-06T01:49:21.365Z,21.50
2019-04-06T01:51:51.856Z,21.70
2019-04-06T01:54:22.325Z,21.83
2019-04-06T01:56:52.820Z,22.90
2019-04-06T01:59:23.285Z,21.43
2019-04-06T02:01:55.428Z,22.50
2019-04-06T02:04:25.899Z,21.43
2019-04-06T02:06:56.498Z,21.87
2019-04-06T02:09:26.998Z,23.00
2019-04-06T02:11:57.571Z,18.70
2019-04-06T02:14:28.035Z,18.23
2019-04-06T02:16:58.534Z,19.03
2019-04-06T02:19:29.031Z,18.93
2019-04-06T02:21:59.496Z,20.47
2019-04-06T02:24:29.994Z,20.10
2019-04-06T02:27:00.527Z,20.60
2019-04-06T02:29:31.182Z,20.60
2019-04-06T02:32:19.854Z,20.97
2019-04-06T02:34:50.107Z,20.27
2019-04-06T02:37:31.074Z,18.63
2019-04-06T02:40:07.454Z,17.47
2019-04-06T02:42:44.135Z,18.40
2019-04-06T02:45:14.852Z,19.03
2019-04-06T02:47:45.338Z,19.27
2019-04-06T02:50:16.081Z,16.83
2019-04-06T02:52:46.702Z,16.70
2019-04-06T02:55:17.294Z,16.20
2019-04-06T02:57:47.763Z,16.67
2019-04-06T03:00:18.336Z,16.27
2019-04-06T03:02:48.825Z,16.63
2019-04-06T03:05:19.332Z,17.13
2019-04-06T03:07:49.814Z,17.80
2019-04-06T03:10:20.298Z,17.67
2019-04-06T03:12:50.945Z,18.83
2019-04-06T03:15:21.416Z,17.40
2019-04-06T03:17:51.908Z,18.60
2019-04-06T03:20:22.378Z,17.10
2019-04-06T03:22:52.874Z,17.43
2019-04-06T03:25:23.482Z,17.40
2019-04-06T03:27:54.019Z,17.30
2019-04-06T03:30:24.596Z,17.23
2019-04-06T03:32:55.077Z,17.27
2019-04-06T03:35:25.585Z,18.23
2019-04-06T03:37:56.169Z,17.60
2019-04-06T03:40:26.625Z,17.77
2019-04-06T03:42:57.127Z,17.97
2019-04-06T03:45:27.601Z,18.83
2019-04-06T03:47:58.682Z,19.00
2019-04-06T03:50:29.141Z,18.23
2019-04-06T03:52:59.636Z,17.60
2019-04-06T03:55:30.150Z,18.20
2019-04-06T03:58:00.838Z,18.03
2019-04-06T04:00:31.269Z,18.67
2019-04-06T04:03:01.770Z,19.17
2019-04-06T04:05:32.777Z,18.70
2019-04-06T04:08:03.235Z,17.57
2019-04-06T04:10:37.405Z,18.07
2019-04-06T04:13:08.051Z,19.50
2019-04-06T04:15:39.271Z,18.60
2019-04-06T04:18:09.820Z,19.33
2019-04-06T04:20:40.343Z,20.80
2019-04-06T04:23:10.894Z,20.13
2019-04-06T04:25:41.387Z,19.57
2019-04-06T04:28:11.871Z,19.60
2019-04-06T04:30:42.444Z,18.80
2019-04-06T04:33:13.001Z,19.13
2019-04-06T04:35:43.514Z,19.80
2019-04-06T04:38:13.985Z,18.80
2019-04-06T04:40:44.488Z,18.90
2019-04-06T04:43:15.002Z,20.80
2019-04-06T04:45:45.514Z,21.40
2019-04-06T04:48:15.971Z,18.70
2019-04-06T04:50:46.777Z,20.20
2019-04-06T04:53:17.302Z,20.23
2019-04-06T04:55:48.867Z,21.60
2019-04-06T04:58:19.363Z,17.23
2019-04-06T05:00:50.170Z,18.30
2019-04-06T05:03:21.109Z,19.60
2019-04-06T05:05:51.663Z,18.63
2019-04-06T05:08:23.811Z,19.97
2019-04-06T05:10:54.259Z,19.60
2019-04-06T05:13:24.757Z,18.40
2019-04-06T05:16:12.813Z,20.17
2019-04-06T05:18:43.957Z,18.93
2019-04-06T05:21:15.621Z,19.03
2019-04-06T05:23:48.856Z,19.67
2019-04-06T05:26:19.335Z,18.83
2019-04-06T05:28:49.832Z,21.23
2019-04-06T05:31:20.300Z,19.10
2019-04-06T05:33:50.790Z,20.77
2019-04-06T05:36:21.261Z,19.47
2019-04-06T05:38:51.875Z,19.03
2019-04-06T05:41:22.334Z,18.87
2019-04-06T05:43:54.570Z,18.53
2019-04-06T05:46:25.038Z,18.37
2019-04-06T05:48:55.560Z,18.17
2019-04-06T05:51:26.133Z,18.90
2019-04-06T05:53:56.631Z,19.60
2019-04-06T05:56:28.667Z,18.77
2019-04-06T05:58:59.159Z,18.10
2019-04-06T06:01:29.659Z,19.30
2019-04-06T06:04:00.151Z,19.83
2019-04-06T06:06:30.677Z,19.30
2019-04-06T06:09:01.118Z,20.30
2019-04-06T06:11:31.686Z,19.80
2019-04-06T06:14:02.921Z,19.67
2019-04-06T06:16:33.636Z,18.80
2019-04-06T06:19:04.231Z,19.10
2019-04-06T06:21:34.734Z,18.93
2019-04-06T06:24:05.286Z,19.80
2019-04-06T06:26:35.852Z,19.90
2019-04-06T06:29:06.361Z,20.07
2019-04-06T06:31:36.850Z,17.00
2019-04-06T06:34:07.399Z,17.80
2019-04-06T06:36:37.877Z,13.83
2019-04-06T06:39:09.358Z,12.97
2019-04-06T06:41:39.835Z,13.57
2019-04-06T06:44:10.336Z,12.80
2019-04-06T06:46:40.809Z,11.27
2019-04-06T06:49:11.321Z,11.53
2019-04-06T06:51:41.872Z,11.40
2019-04-06T06:54:12.384Z,10.60
2019-04-06T06:56:43.040Z,11.07
2019-04-06T06:59:13.543Z,10.00
2019-04-06T07:01:44.009Z,10.93
2019-04-06T07:04:14.512Z,10.43
2019-04-06T07:06:45.611Z,9.50
2019-04-06T07:09:16.371Z,11.03
2019-04-06T07:11:47.035Z,10.03
2019-04-06T07:14:17.580Z,13.03
2019-04-06T07:16:48.014Z,12.40
2019-04-06T07:19:18.585Z,9.67
2019-04-06T07:21:49.043Z,32.70
2019-04-06T07:24:19.547Z,23.20
2019-04-06T07:26:53.142Z,10.57
2019-04-06T07:29:23.602Z,8.37
2019-04-06T07:31:54.174Z,8.20
2019-04-06T07:34:24.631Z,7.97
2019-04-06T07:36:55.235Z,8.00
2019-04-06T07:39:25.936Z,7.63
2019-04-06T07:41:56.441Z,7.30
2019-04-06T07:44:26.916Z,7.43
2019-04-06T07:46:57.402Z,7.00
2019-04-06T07:49:27.863Z,6.87
2019-04-06T07:51:58.374Z,6.53
2019-04-06T07:54:28.840Z,6.40
2019-04-06T07:56:59.328Z,6.30
2019-04-06T07:59:29.835Z,6.10
2019-04-06T08:02:00.767Z,6.87
2019-04-06T08:04:31.610Z,6.07
2019-04-06T08:07:02.067Z,5.37
2019-04-06T08:09:32.647Z,6.10
2019-04-06T08:12:03.284Z,5.63
2019-04-06T08:14:33.747Z,5.87
2019-04-06T08:17:04.454Z,5.43
2019-04-06T08:19:35.277Z,5.40
2019-04-06T08:22:06.986Z,5.60
2019-04-06T08:24:39.248Z,5.20
2019-04-06T08:27:10.007Z,14.47
2019-04-06T08:29:40.749Z,8.43
2019-04-06T08:32:12.299Z,9.83
2019-04-06T08:34:44.526Z,4.70
2019-04-06T08:37:15.040Z,4.80
2019-04-06T08:39:45.626Z,4.80
2019-04-06T08:42:16.351Z,4.90
2019-04-06T08:44:46.803Z,4.10
2019-04-06T08:47:17.312Z,27.83
2019-04-06T08:49:47.775Z,7.73
2019-04-06T08:52:20.247Z,4.10
2019-04-06T08:54:50.469Z,4.77
2019-04-06T08:57:22.790Z,4.87
2019-04-06T08:59:53.140Z,4.60
2019-04-06T09:02:23.918Z,3.27
2019-04-06T09:04:54.419Z,2.80
2019-04-06T09:07:24.883Z,2.67
2019-04-06T09:09:55.403Z,2.10
2019-04-06T09:12:25.860Z,2.20
2019-04-06T09:14:56.371Z,2.10
2019-04-06T09:17:26.832Z,1.97
2019-04-06T09:19:57.336Z,1.83
2019-04-06T09:22:27.861Z,2.13
2019-04-06T09:24:58.320Z,2.10
2019-04-06T09:27:28.829Z,1.70
2019-04-06T09:29:59.309Z,1.70
2019-04-06T09:32:29.843Z,1.77
2019-04-06T09:35:00.290Z,1.60
2019-04-06T09:37:30.767Z,1.67
2019-04-06T09:40:01.295Z,1.77
2019-04-06T09:42:31.789Z,1.80
2019-04-06T09:45:06.818Z,2.40
2019-04-06T09:47:38.967Z,1.40
2019-04-06T09:50:11.237Z,1.40
2019-04-06T09:52:59.254Z,1.33
2019-04-06T09:55:34.320Z,1.37
2019-04-06T09:58:06.500Z,1.30
2019-04-06T10:00:41.321Z,1.50
2019-04-06T10:03:29.685Z,1.30
2019-04-06T10:06:11.038Z,1.33
2019-04-06T10:08:43.294Z,1.30
2019-04-06T10:11:21.338Z,0.90
2019-04-06T10:14:00.145Z,0.93
2019-04-06T10:16:32.309Z,1.30
2019-04-06T10:19:25.384Z,0.90
2019-04-06T10:21:57.395Z,1.00
2019-04-06T10:24:38.535Z,0.73
2019-04-06T10:27:16.620Z,0.90
2019-04-06T10:29:49.637Z,0.97
2019-04-06T10:32:26.698Z,1.50
2019-04-06T10:35:07.470Z,1.30
2019-04-06T10:37:55.834Z,1.10
2019-04-06T10:40:30.930Z,1.23
2019-04-06T10:43:19.129Z,1.30
2019-04-06T10:45:53.892Z,1.60
2019-04-06T10:48:29.196Z,1.43
2019-04-06T10:51:01.459Z,1.47
2019-04-06T10:53:33.576Z,1.60
2019-04-06T10:56:21.033Z,1.63
2019-04-06T10:59:02.422Z,1.00
2019-04-06T11:01:33.883Z,1.20
2019-04-06T11:04:06.111Z,1.50
2019-04-06T11:06:42.140Z,1.30
2019-04-06T11:09:17.353Z,1.70
2019-04-06T11:11:55.230Z,1.20
2019-04-06T11:14:43.815Z,1.20
2019-04-06T11:17:18.631Z,0.70
2019-04-06T11:20:05.717Z,0.90
2019-04-06T11:22:43.630Z,0.97
2019-04-06T11:25:18.463Z,1.10
2019-04-06T11:27:53.933Z,1.00
2019-04-06T11:30:35.062Z,1.20
2019-04-06T11:33:19.573Z,0.97
2019-04-06T11:35:52.524Z,1.73
2019-04-06T11:38:35.244Z,1.60
2019-04-06T11:41:11.261Z,0.90
2019-04-06T11:43:43.740Z,1.13
2019-04-06T11:46:16.438Z,1.10
2019-04-06T11:48:51.191Z,0.80
2019-04-06T11:51:23.385Z,1.00
2019-04-06T11:54:11.287Z,1.00
2019-04-06T11:56:46.430Z,1.00
2019-04-06T11:59:24.224Z,1.30
2019-04-06T12:01:56.367Z,1.30
2019-04-06T12:04:34.235Z,1.30
2019-04-06T12:07:06.583Z,1.07
2019-04-06T12:09:51.444Z,1.43
2019-04-06T12:12:40.149Z,1.10
2019-04-06T12:15:16.028Z,1.10
2019-04-06T12:18:04.537Z,1.17
2019-04-06T12:20:39.747Z,1.40
2019-04-06T12:23:28.064Z,1.50
2019-04-06T12:26:06.335Z,1.70
2019-04-06T12:28:38.510Z,1.77
2019-04-06T12:31:25.637Z,1.80
2019-04-06T12:34:13.949Z,1.60
2019-04-06T12:37:02.503Z,2.03
2019-04-06T12:39:52.722Z,1.60
2019-04-06T12:42:33.969Z,1.80
2019-04-06T12:45:23.725Z,1.90
2019-04-06T12:47:54.160Z,2.10
2019-04-06T12:50:28.973Z,2.10
2019-04-06T12:53:04.079Z,2.37
2019-04-06T12:55:46.385Z,1.90
2019-04-06T12:58:24.174Z,2.00
2019-04-06T13:01:06.425Z,1.90
2019-04-06T13:03:47.365Z,1.33
2019-04-06T13:06:19.637Z,1.70
2019-04-06T13:08:54.498Z,1.60
2019-04-06T13:11:46.968Z,1.43
2019-04-06T13:14:23.896Z,1.90
2019-04-06T13:16:58.926Z,1.47
2019-04-06T13:19:33.604Z,1.90
2019-04-06T13:22:04.199Z,1.63
2019-04-06T13:24:36.689Z,1.97
2019-04-06T13:27:17.670Z,1.97
2019-04-06T13:30:01.785Z,1.70
2019-04-06T13:32:41.482Z,1.80
2019-04-06T13:35:29.763Z,1.80
2019-04-06T13:38:13.441Z,1.90
2019-04-06T13:40:43.782Z,1.70
2019-04-06T13:43:24.839Z,1.50
2019-04-06T13:46:13.130Z,2.10
2019-04-06T13:48:51.074Z,1.50
2019-04-06T13:51:26.100Z,2.30
2019-04-06T13:54:07.200Z,2.30
2019-04-06T13:56:55.367Z,2.40
2019-04-06T13:59:43.317Z,2.93
2019-04-06T14:02:20.925Z,2.40
2019-04-06T14:04:56.132Z,2.00
2019-04-06T14:07:46.036Z,2.03
2019-04-06T14:10:18.126Z,2.20
2019-04-06T14:12:50.352Z,1.70
2019-04-06T14:15:37.193Z,1.50
2019-04-06T14:18:09.333Z,1.93
2019-04-06T14:20:50.222Z,2.40
2019-04-06T14:23:31.793Z,1.90
2019-04-06T14:26:10.128Z,2.40
2019-04-06T14:28:58.512Z,2.37
2019-04-06T14:31:30.997Z,2.70
2019-04-06T14:34:05.990Z,2.70
2019-04-06T14:36:38.135Z,2.20
2019-04-06T14:39:23.966Z,2.63
2019-04-06T14:42:05.217Z,2.27
2019-04-06T14:44:35.489Z,2.77
2019-04-06T14:47:08.565Z,2.33
2019-04-06T14:49:41.559Z,2.60
2019-04-06T14:52:25.966Z,2.40
2019-04-06T14:55:10.023Z,2.60
2019-04-06T14:58:00.387Z,2.30
2019-04-06T15:00:48.819Z,2.93
2019-04-06T15:03:34.878Z,2.43
2019-04-06T15:06:05.313Z,2.37
2019-04-06T15:08:41.288Z,2.43
2019-04-06T15:11:13.703Z,2.50
2019-04-06T15:13:45.919Z,2.10
2019-04-06T15:16:23.749Z,2.33
2019-04-06T15:18:55.891Z,2.27
2019-04-06T15:21:44.524Z,2.90
2019-04-06T15:24:31.782Z,2.30
2019-04-06T15:27:10.620Z,2.60
2019-04-06T15:29:48.740Z,2.40
2019-04-06T15:32:35.984Z,3.10
2019-04-06T15:35:25.460Z,2.17
2019-04-06T15:38:13.933Z,2.77
2019-04-06T15:41:02.050Z,2.60
2019-04-06T15:43:39.892Z,3.07
2019-04-06T15:46:11.985Z,3.43
2019-04-06T15:48:48.060Z,2.80
2019-04-06T15:51:18.291Z,2.63
2019-04-06T15:54:06.588Z,3.53
2019-04-06T15:56:44.780Z,3.37
2019-04-06T15:59:19.814Z,3.00
2019-04-06T16:02:09.658Z,2.70
2019-04-06T16:04:41.791Z,3.20
2019-04-06T16:07:31.307Z,3.63
2019-04-06T16:09:59.169Z,2.73
2019-04-06T16:12:46.819Z,3.10
2019-04-06T16:15:19.063Z,3.20
2019-04-06T16:18:07.366Z,2.47
2019-04-06T16:20:39.683Z,2.73
2019-04-06T16:23:25.329Z,3.57
2019-04-06T16:25:55.566Z,2.57
2019-04-06T16:28:42.874Z,2.80
2019-04-06T16:31:20.694Z,3.23
2019-04-06T16:34:03.398Z,3.37
2019-04-06T16:36:51.213Z,2.83
2019-04-06T16:39:40.135Z,2.80
2019-04-06T16:42:30.043Z,2.73
2019-04-06T16:45:20.399Z,3.60
2019-04-06T16:47:52.540Z,3.57
2019-04-06T16:50:28.491Z,3.40
2019-04-06T16:53:17.842Z,4.20
2019-04-06T16:55:48.770Z,4.90
2019-04-06T16:58:19.097Z,3.87
2019-04-06T17:00:57.065Z,3.90
2019-04-06T17:03:37.927Z,4.23
2019-04-06T17:06:12.776Z,4.10
2019-04-06T17:08:47.549Z,3.50
2019-04-06T17:11:19.877Z,4.00
2019-04-06T17:14:08.907Z,3.90
2019-04-06T17:16:56.022Z,28.07
2019-04-06T17:19:46.219Z,31.03
2019-04-06T17:22:26.105Z,5.63
2019-04-06T17:24:58.246Z,4.37
2019-04-06T17:27:30.376Z,4.67
2019-04-06T17:30:18.731Z,4.53
2019-04-06T17:33:07.656Z,5.23
2019-04-06T17:35:40.282Z,4.70
2019-04-06T17:38:30.480Z,5.30
2019-04-06T17:41:11.837Z,5.00
2019-04-06T17:43:52.726Z,3.93
2019-04-06T17:46:39.034Z,5.40
2019-04-06T17:49:23.873Z,7.43
2019-04-06T17:51:56.871Z,22.10
2019-04-06T17:54:29.187Z,7.37
2019-04-06T17:57:19.607Z,6.23
2019-04-06T18:00:00.860Z,6.20
2019-04-06T18:02:33.339Z,6.93
2019-04-06T18:05:10.566Z,6.40
2019-04-06T18:07:45.497Z,6.00
2019-04-06T18:10:18.531Z,7.87
2019-04-06T18:12:48.893Z,8.07
2019-04-06T18:15:19.480Z,8.20
2019-04-06T18:17:50.425Z,8.63
2019-04-06T18:20:21.019Z,8.07
2019-04-06T18:22:51.483Z,8.87
2019-04-06T18:25:22.068Z,9.03
2019-04-06T18:27:52.640Z,10.60
2019-04-06T18:30:23.169Z,10.50
2019-04-06T18:33:01.245Z,10.00
2019-04-06T18:35:27.897Z,11.30
2019-04-06T18:38:15.180Z,10.57
2019-04-06T18:40:46.082Z,10.40
2019-04-06T18:43:16.619Z,10.40
2019-04-06T18:45:47.180Z,11.40
2019-04-06T18:48:18.098Z,10.67
2019-04-06T18:50:48.721Z,10.60
2019-04-06T18:53:19.402Z,10.03
2019-04-06T18:55:49.841Z,10.43
2019-04-06T18:58:20.768Z,9.90
2019-04-06T19:00:51.497Z,9.33
2019-04-06T19:03:22.051Z,10.10
2019-04-06T19:05:52.517Z,10.83
2019-04-06T19:08:23.367Z,11.83
2019-04-06T19:10:55.497Z,10.07
2019-04-06T19:13:26.146Z,7.73
2019-04-06T19:15:56.830Z,7.80
2019-04-06T19:18:27.285Z,8.60
2019-04-06T19:20:58.120Z,9.00
2019-04-06T19:23:49.485Z,8.53
2019-04-06T19:26:19.996Z,8.53
2019-04-06T19:28:50.445Z,6.87
2019-04-06T19:31:20.952Z,5.53
2019-04-06T19:33:51.392Z,7.53
2019-04-06T19:36:21.887Z,10.20
2019-04-06T19:38:52.349Z,8.70
2019-04-06T19:41:22.841Z,8.83
2019-04-06T19:43:53.350Z,9.50
2019-04-06T19:46:23.854Z,9.40
2019-04-06T19:48:54.343Z,9.10
2019-04-06T19:51:24.887Z,9.80
2019-04-06T19:53:55.906Z,9.73
2019-04-06T19:56:26.502Z,10.17
2019-04-06T19:58:57.013Z,8.93
2019-04-06T20:01:27.476Z,8.80
2019-04-06T20:03:58.053Z,8.47
2019-04-06T20:06:28.851Z,8.33
2019-04-06T20:08:59.536Z,8.70
2019-04-06T20:11:30.001Z,7.97
2019-04-06T20:14:00.556Z,8.70
2019-04-06T20:16:31.823Z,8.50
2019-04-06T20:19:02.312Z,9.73
2019-04-06T20:21:33.082Z,9.63
2019-04-06T20:24:04.113Z,9.37
2019-04-06T20:26:34.870Z,10.17
2019-04-06T20:29:06.336Z,10.60
2019-04-06T20:31:36.975Z,10.80
2019-04-06T20:34:07.591Z,11.13
2019-04-06T20:36:38.053Z,11.53
2019-04-06T20:39:10.086Z,10.97
2019-04-06T20:41:40.643Z,10.60
2019-04-06T20:44:11.114Z,11.43
2019-04-06T20:46:41.593Z,11.30
2019-04-06T20:49:12.054Z,11.03
2019-04-06T20:51:42.565Z,11.30
2019-04-06T20:54:13.011Z,10.20
2019-04-06T20:56:53.308Z,9.87
2019-04-06T20:59:16.663Z,10.33
2019-04-06T21:01:47.200Z,9.70
2019-04-06T21:04:17.900Z,10.73
2019-04-06T21:06:48.319Z,9.63
2019-04-06T21:09:19.004Z,8.63
2019-04-06T21:11:49.631Z,8.67
2019-04-06T21:14:20.548Z,8.97
2019-04-06T21:16:51.019Z,7.90
2019-04-06T21:19:21.472Z,8.67
2019-04-06T21:21:52.078Z,7.60
2019-04-06T21:24:22.617Z,8.30
2019-04-06T21:26:53.258Z,8.50
2019-04-06T21:29:24.262Z,8.37
2019-04-06T21:31:56.392Z,7.80
2019-04-06T21:34:29.660Z,7.63
2019-04-06T21:37:00.111Z,7.50
2019-04-06T21:39:30.749Z,7.63
2019-04-06T21:42:01.232Z,8.33
2019-04-06T21:44:32.056Z,8.03
2019-04-06T21:47:02.635Z,7.63
2019-04-06T21:49:33.550Z,6.60
2019-04-06T21:52:04.933Z,7.30
2019-04-06T21:54:36.032Z,7.40
2019-04-06T21:57:06.561Z,7.77
2019-04-06T21:59:39.827Z,7.13
2019-04-06T22:02:11.536Z,7.83
2019-04-06T22:04:42.215Z,8.40
2019-04-06T22:07:12.966Z,8.40
2019-04-06T22:09:43.960Z,8.27
2019-04-06T22:12:15.123Z,7.87
2019-04-06T22:14:46.088Z,7.70
2019-04-06T22:17:16.604Z,8.33
2019-04-06T22:19:47.265Z,7.30
2019-04-06T22:22:18.006Z,9.17
2019-04-06T22:24:48.654Z,7.50
2019-04-06T22:27:19.133Z,6.93
2019-04-06T22:29:49.899Z,7.20
2019-04-06T22:32:20.898Z,6.47
2019-04-06T22:34:51.955Z,7.40
2019-04-06T22:37:23.324Z,7.13
2019-04-06T22:39:53.857Z,6.40
2019-04-06T22:42:24.856Z,6.43
2019-04-06T22:44:55.967Z,7.57
2019-04-06T22:47:26.537Z,6.00
2019-04-06T22:49:57.012Z,6.73
2019-04-06T22:52:27.507Z,6.40
2019-04-06T22:54:57.964Z,6.90
2019-04-06T22:57:28.437Z,6.83
2019-04-06T22:59:59.181Z,7.10
2019-04-06T23:02:31.838Z,6.67
2019-04-06T23:05:03.954Z,6.57
2019-04-06T23:07:34.878Z,7.80
2019-04-06T23:10:06.121Z,7.03
2019-04-06T23:12:36.997Z,7.40
2019-04-06T23:15:08.658Z,7.00
2019-04-06T23:17:39.438Z,6.27
2019-04-06T23:20:10.512Z,7.80
2019-04-06T23:22:41.116Z,7.13
2019-04-06T23:25:11.804Z,8.27
2019-04-06T23:27:42.248Z,9.23
2019-04-06T23:30:13.166Z,11.70
2019-04-06T23:32:43.634Z,11.57
2019-04-06T23:35:14.261Z,11.70
2019-04-06T23:37:44.828Z,12.27
2019-04-06T23:40:15.425Z,10.50
2019-04-06T23:42:45.917Z,11.20
2019-04-06T23:45:16.369Z,11.30
2019-04-06T23:47:46.828Z,10.17
2019-04-06T23:50:17.860Z,10.53
2019-04-06T23:52:48.907Z,10.73
2019-04-06T23:55:19.965Z,9.80
2019-04-06T23:57:50.987Z,10.47
